sensor_id;sensor_type;location;lat;lon;timestamp;P1;durP1;ratioP1;P2;durP2;ratioP2
16177;SDS011;8195;51.220;9.746;2023-04-25T00:03:08;7.17;;;6.37;;
16177;SDS011;8195;51.220;9.746;2023-04-25T00:13:29;8.63;;;6.43;;
16177;SDS011;8195;51.220;9.746;2023-04-25T00:23:52;6.77;;;6.17;;
16177;SDS011;8195;51.220;9.746;2023-04-25T00:34:13;7.07;;;6.00;;
16177;SDS011;8195;51.220;9.746;2023-04-25T00:44:34;7.17;;;6.43;;
16177;SDS011;8195;51.220;9.746;2023-04-25T00:54:56;6.87;;;6.20;;
16177;SDS011;8195;51.220;9.746;2023-04-25T01:05:17;7.13;;;6.43;;
16177;SDS011;8195;51.220;9.746;2023-04-25T01:15:38;7.00;;;6.30;;
16177;SDS011;8195;51.220;9.746;2023-04-25T01:25:59;6.73;;;6.13;;
16177;SDS011;8195;51.220;9.746;2023-04-25T01:36:21;6.90;;;6.20;;
16177;SDS011;8195;51.220;9.746;2023-04-25T01:46:42;8.23;;;7.07;;
16177;SDS011;8195;51.220;9.746;2023-04-25T01:57:03;9.40;;;7.17;;
16177;SDS011;8195;51.220;9.746;2023-04-25T02:07:25;7.87;;;6.63;;
16177;SDS011;8195;51.220;9.746;2023-04-25T02:17:46;10.50;;;7.80;;
16177;SDS011;8195;51.220;9.746;2023-04-25T02:28:07;7.83;;;7.03;;
16177;SDS011;8195;51.220;9.746;2023-04-25T02:38:28;8.53;;;7.50;;
16177;SDS011;8195;51.220;9.746;2023-04-25T02:48:49;9.27;;;8.27;;
16177;SDS011;8195;51.220;9.746;2023-04-25T02:59:10;8.97;;;8.17;;
16177;SDS011;8195;51.220;9.746;2023-04-25T03:09:31;10.53;;;8.93;;
16177;SDS011;8195;51.220;9.746;2023-04-25T03:19:52;10.63;;;7.97;;
16177;SDS011;8195;51.220;9.746;2023-04-25T03:30:13;12.20;;;8.80;;
16177;SDS011;8195;51.220;9.746;2023-04-25T03:40:34;8.40;;;7.53;;
16177;SDS011;8195;51.220;9.746;2023-04-25T03:50:55;9.20;;;7.70;;
16177;SDS011;8195;51.220;9.746;2023-04-25T04:01:16;8.80;;;7.40;;
16177;SDS011;8195;51.220;9.746;2023-04-25T04:11:37;10.83;;;8.00;;
16177;SDS011;8195;51.220;9.746;2023-04-25T04:21:58;11.03;;;8.13;;
16177;SDS011;8195;51.220;9.746;2023-04-25T04:32:19;11.13;;;7.53;;
16177;SDS011;8195;51.220;9.746;2023-04-25T04:42:41;9.70;;;7.73;;
16177;SDS011;8195;51.220;9.746;2023-04-25T04:53:03;9.10;;;7.63;;
16177;SDS011;8195;51.220;9.746;2023-04-25T05:03:24;9.33;;;8.00;;
16177;SDS011;8195;51.220;9.746;2023-04-25T05:13:45;13.07;;;8.43;;
16177;SDS011;8195;51.220;9.746;2023-04-25T05:24:06;9.13;;;7.40;;
16177;SDS011;8195;51.220;9.746;2023-04-25T05:34:27;10.07;;;7.73;;
16177;SDS011;8195;51.220;9.746;2023-04-25T05:44:48;10.57;;;8.23;;
16177;SDS011;8195;51.220;9.746;2023-04-25T05:55:09;12.40;;;8.73;;
16177;SDS011;8195;51.220;9.746;2023-04-25T06:05:30;12.53;;;8.70;;
16177;SDS011;8195;51.220;9.746;2023-04-25T06:15:51;10.80;;;8.20;;
16177;SDS011;8195;51.220;9.746;2023-04-25T06:26:12;12.17;;;8.93;;
16177;SDS011;8195;51.220;9.746;2023-04-25T06:36:35;8.47;;;7.50;;
16177;SDS011;8195;51.220;9.746;2023-04-25T06:46:56;8.33;;;6.20;;
16177;SDS011;8195;51.220;9.746;2023-04-25T06:57:18;6.10;;;4.40;;
16177;SDS011;8195;51.220;9.746;2023-04-25T07:07:41;4.17;;;3.70;;
16177;SDS011;8195;51.220;9.746;2023-04-25T07:18:02;4.27;;;3.70;;
16177;SDS011;8195;51.220;9.746;2023-04-25T07:28:23;6.77;;;4.80;;
16177;SDS011;8195;51.220;9.746;2023-04-25T07:38:44;11.03;;;5.37;;
16177;SDS011;8195;51.220;9.746;2023-04-25T07:49:05;10.03;;;6.30;;
16177;SDS011;8195;51.220;9.746;2023-04-25T07:59:26;10.20;;;6.13;;
16177;SDS011;8195;51.220;9.746;2023-04-25T08:09:48;12.17;;;6.50;;
16177;SDS011;8195;51.220;9.746;2023-04-25T08:20:09;13.23;;;7.43;;
16177;SDS011;8195;51.220;9.746;2023-04-25T08:30:30;13.33;;;7.93;;
16177;SDS011;8195;51.220;9.746;2023-04-25T08:41:08;12.80;;;6.60;;
16177;SDS011;8195;51.220;9.746;2023-04-25T08:51:32;11.20;;;6.20;;
16177;SDS011;8195;51.220;9.746;2023-04-25T09:01:53;13.83;;;6.97;;
16177;SDS011;8195;51.220;9.746;2023-04-25T09:12:16;15.10;;;6.63;;
16177;SDS011;8195;51.220;9.746;2023-04-25T09:22:39;10.07;;;6.07;;
16177;SDS011;8195;51.220;9.746;2023-04-25T09:33:06;11.10;;;6.70;;
16177;SDS011;8195;51.220;9.746;2023-04-25T09:43:29;10.03;;;6.60;;
16177;SDS011;8195;51.220;9.746;2023-04-25T09:53:50;14.57;;;10.27;;
16177;SDS011;8195;51.220;9.746;2023-04-25T10:04:11;13.60;;;9.57;;
16177;SDS011;8195;51.220;9.746;2023-04-25T10:14:35;9.83;;;5.87;;
16177;SDS011;8195;51.220;9.746;2023-04-25T10:24:55;9.10;;;6.43;;
16177;SDS011;8195;51.220;9.746;2023-04-25T10:35:18;11.67;;;6.17;;
16177;SDS011;8195;51.220;9.746;2023-04-25T10:45:51;9.93;;;4.90;;
16177;SDS011;8195;51.220;9.746;2023-04-25T11:17:11;7.67;;;5.83;;
16177;SDS011;8195;51.220;9.746;2023-04-25T11:27:32;6.23;;;4.70;;
16177;SDS011;8195;51.220;9.746;2023-04-25T11:37:53;14.07;;;9.50;;
16177;SDS011;8195;51.220;9.746;2023-04-25T11:48:14;13.67;;;11.70;;
16177;SDS011;8195;51.220;9.746;2023-04-25T11:58:53;15.17;;;13.57;;
16177;SDS011;8195;51.220;9.746;2023-04-25T12:09:19;9.90;;;8.80;;
16177;SDS011;8195;51.220;9.746;2023-04-25T12:19:53;6.47;;;4.30;;
16177;SDS011;8195;51.220;9.746;2023-04-25T12:30:14;8.23;;;6.93;;
16177;SDS011;8195;51.220;9.746;2023-04-25T12:40:34;4.20;;;3.50;;
16177;SDS011;8195;51.220;9.746;2023-04-25T12:50:55;6.13;;;3.03;;
16177;SDS011;8195;51.220;9.746;2023-04-25T13:01:16;5.47;;;2.87;;
16177;SDS011;8195;51.220;9.746;2023-04-25T13:11:37;6.67;;;3.37;;
16177;SDS011;8195;51.220;9.746;2023-04-25T13:21:58;6.10;;;2.90;;
16177;SDS011;8195;51.220;9.746;2023-04-25T13:32:19;8.20;;;7.40;;
16177;SDS011;8195;51.220;9.746;2023-04-25T13:42:40;10.23;;;8.90;;
16177;SDS011;8195;51.220;9.746;2023-04-25T13:53:01;6.70;;;3.57;;
16177;SDS011;8195;51.220;9.746;2023-04-25T14:03:22;4.87;;;3.27;;
16177;SDS011;8195;51.220;9.746;2023-04-25T14:13:42;3.87;;;3.23;;
16177;SDS011;8195;51.220;9.746;2023-04-25T14:24:04;5.63;;;4.00;;
16177;SDS011;8195;51.220;9.746;2023-04-25T14:34:25;6.03;;;5.07;;
16177;SDS011;8195;51.220;9.746;2023-04-25T14:44:47;7.07;;;5.00;;
16177;SDS011;8195;51.220;9.746;2023-04-25T14:55:08;3.97;;;2.70;;
16177;SDS011;8195;51.220;9.746;2023-04-25T15:05:29;4.03;;;3.00;;
16177;SDS011;8195;51.220;9.746;2023-04-25T15:15:50;5.10;;;4.40;;
16177;SDS011;8195;51.220;9.746;2023-04-25T15:26:11;4.57;;;4.03;;
16177;SDS011;8195;51.220;9.746;2023-04-25T15:36:31;6.40;;;3.47;;
16177;SDS011;8195;51.220;9.746;2023-04-25T15:46:52;3.57;;;2.83;;
16177;SDS011;8195;51.220;9.746;2023-04-25T15:57:13;4.43;;;3.53;;
16177;SDS011;8195;51.220;9.746;2023-04-25T16:07:34;4.20;;;3.80;;
16177;SDS011;8195;51.220;9.746;2023-04-25T16:17:55;5.53;;;4.53;;
16177;SDS011;8195;51.220;9.746;2023-04-25T16:28:16;4.90;;;2.87;;
16177;SDS011;8195;51.220;9.746;2023-04-25T16:38:46;3.40;;;3.10;;
16177;SDS011;8195;51.220;9.746;2023-04-25T16:49:06;5.77;;;4.50;;
16177;SDS011;8195;51.220;9.746;2023-04-25T16:59:27;4.27;;;3.90;;
16177;SDS011;8195;51.220;9.746;2023-04-25T17:09:54;3.27;;;2.97;;
16177;SDS011;8195;51.220;9.746;2023-04-25T17:20:24;3.87;;;3.47;;
16177;SDS011;8195;51.220;9.746;2023-04-25T17:30:45;4.77;;;3.00;;
16177;SDS011;8195;51.220;9.746;2023-04-25T17:41:06;6.67;;;3.50;;
16177;SDS011;8195;51.220;9.746;2023-04-25T17:51:33;4.77;;;3.20;;
16177;SDS011;8195;51.220;9.746;2023-04-25T18:01:54;4.57;;;3.17;;
16177;SDS011;8195;51.220;9.746;2023-04-25T18:12:17;5.00;;;3.60;;
16177;SDS011;8195;51.220;9.746;2023-04-25T18:22:38;7.60;;;5.63;;
16177;SDS011;8195;51.220;9.746;2023-04-25T18:33:05;5.20;;;4.63;;
16177;SDS011;8195;51.220;9.746;2023-04-25T18:43:26;4.10;;;3.80;;
16177;SDS011;8195;51.220;9.746;2023-04-25T18:53:47;11.23;;;10.23;;
16177;SDS011;8195;51.220;9.746;2023-04-25T19:04:09;4.77;;;4.30;;
16177;SDS011;8195;51.220;9.746;2023-04-25T19:14:30;3.77;;;3.03;;
16177;SDS011;8195;51.220;9.746;2023-04-25T19:24:51;5.77;;;5.13;;
16177;SDS011;8195;51.220;9.746;2023-04-25T19:35:22;3.27;;;2.60;;
16177;SDS011;8195;51.220;9.746;2023-04-25T19:45:43;6.10;;;3.87;;
16177;SDS011;8195;51.220;9.746;2023-04-25T19:56:04;3.93;;;3.40;;
16177;SDS011;8195;51.220;9.746;2023-04-25T20:06:28;7.20;;;4.77;;
16177;SDS011;8195;51.220;9.746;2023-04-25T20:16:49;4.30;;;3.70;;
16177;SDS011;8195;51.220;9.746;2023-04-25T20:27:10;5.50;;;4.20;;
16177;SDS011;8195;51.220;9.746;2023-04-25T20:37:31;3.90;;;2.90;;
16177;SDS011;8195;51.220;9.746;2023-04-25T20:47:52;3.37;;;3.00;;
16177;SDS011;8195;51.220;9.746;2023-04-25T20:58:13;4.37;;;3.80;;
16177;SDS011;8195;51.220;9.746;2023-04-25T21:08:34;5.23;;;3.30;;
16177;SDS011;8195;51.220;9.746;2023-04-25T21:18:54;4.17;;;3.40;;
16177;SDS011;8195;51.220;9.746;2023-04-25T21:29:15;4.43;;;3.40;;
16177;SDS011;8195;51.220;9.746;2023-04-25T21:39:36;4.13;;;3.57;;
16177;SDS011;8195;51.220;9.746;2023-04-25T21:49:57;6.43;;;3.57;;
16177;SDS011;8195;51.220;9.746;2023-04-25T22:00:19;4.27;;;3.80;;
16177;SDS011;8195;51.220;9.746;2023-04-25T22:10:40;4.53;;;3.70;;
16177;SDS011;8195;51.220;9.746;2023-04-25T22:21:01;3.90;;;3.60;;
16177;SDS011;8195;51.220;9.746;2023-04-25T22:31:22;4.80;;;4.10;;
16177;SDS011;8195;51.220;9.746;2023-04-25T22:41:43;4.30;;;3.90;;
16177;SDS011;8195;51.220;9.746;2023-04-25T22:52:04;7.13;;;4.70;;
16177;SDS011;8195;51.220;9.746;2023-04-25T23:02:25;6.23;;;4.07;;
16177;SDS011;8195;51.220;9.746;2023-04-25T23:12:46;8.00;;;4.13;;
16177;SDS011;8195;51.220;9.746;2023-04-25T23:23:07;5.93;;;4.23;;
16177;SDS011;8195;51.220;9.746;2023-04-25T23:33:28;5.63;;;3.83;;
16177;SDS011;8195;51.220;9.746;2023-04-25T23:43:49;8.70;;;3.90;;
16177;SDS011;8195;51.220;9.746;2023-04-25T23:54:10;5.53;;;4.03;;
